Time;durP1;ratioP1;P1;durP2;ratioP2;P2;SDS_P1;SDS_P2;PMS_P1;PMS_P2;Temp;Humidity;BMP_temperature;BMP_pressure;BME280_temperature;BME280_humidity;BME280_pressure;Samples;Min_cycle;Max_cycle;Signal;HPM_P1;HPM_P2
2023/03/26 00:00:13;;;;;;;0.40;0.40;;;7.80;99.90;;;;;;6127143;23;20480;-68
2023/03/26 00:02:39;;;;;;;2.25;0.80;;;7.80;99.90;;;;;;6126696;23;20172;-69
2023/03/26 00:05:06;;;;;;;0.40;0.40;;;7.90;99.90;;;;;;6126691;23;20162;-69
2023/03/26 00:07:32;;;;;;;0.55;0.55;;;7.90;99.90;;;;;;6126051;23;20848;-69
2023/03/26 00:09:57;;;;;;;0.80;0.80;;;7.90;99.90;;;;;;6126633;23;20166;-69
2023/03/26 00:12:24;;;;;;;0.30;0.30;;;7.90;99.90;;;;;;6126438;23;20159;-69
2023/03/26 00:14:51;;;;;;;0.50;0.50;;;7.90;99.90;;;;;;6126519;23;20185;-69
2023/03/26 00:17:17;;;;;;;0.30;0.30;;;7.90;99.90;;;;;;6126515;23;20517;-68
2023/03/26 00:19:44;;;;;;;0.32;0.32;;;7.90;99.90;;;;;;6126638;23;20147;-69
2023/03/26 00:22:12;;;;;;;0.30;0.30;;;7.90;99.90;;;;;;6126218;23;20197;-69
2023/03/26 00:24:39;;;;;;;0.32;0.32;;;7.90;99.90;;;;;;6126583;23;20159;-68
2023/03/26 00:27:05;;;;;;;0.45;0.43;;;7.90;99.90;;;;;;6126792;23;20484;-68
2023/03/26 00:29:32;;;;;;;1.13;1.02;;;7.80;99.90;;;;;;6126508;23;20558;-70
2023/03/26 00:31:58;;;;;;;0.30;0.30;;;7.90;99.90;;;;;;6126321;23;20155;-68
2023/03/26 00:34:25;;;;;;;0.30;0.30;;;7.90;99.90;;;;;;6126494;23;20240;-68
2023/03/26 00:36:53;;;;;;;0.55;0.55;;;8.00;99.90;;;;;;6126484;23;20669;-69
2023/03/26 00:39:20;;;;;;;0.35;0.35;;;7.90;99.90;;;;;;6126457;23;20174;-69
2023/03/26 00:41:46;;;;;;;0.60;0.40;;;8.00;99.90;;;;;;6126298;23;20229;-69
2023/03/26 00:44:12;;;;;;;1.60;1.50;;;8.00;99.90;;;;;;6126456;23;20148;-69
2023/03/26 00:46:38;;;;;;;0.67;0.67;;;8.00;99.90;;;;;;6126545;23;20634;-69
2023/03/26 00:49:04;;;;;;;0.52;0.52;;;8.00;99.90;;;;;;6126274;23;20579;-69
2023/03/26 00:51:32;;;;;;;0.50;0.50;;;8.00;99.90;;;;;;6126475;23;20155;-69
2023/03/26 00:53:57;;;;;;;0.35;0.35;;;7.90;99.90;;;;;;6126173;23;20179;-69
2023/03/26 00:56:23;;;;;;;0.80;0.53;;;7.80;99.90;;;;;;6126404;23;20610;-69
2023/03/26 00:58:49;;;;;;;0.50;0.50;;;7.70;99.90;;;;;;6126384;23;20167;-69
2023/03/26 01:01:27;;;;;;;2.30;2.10;;;7.70;99.90;;;;;;6126350;23;20175;-68
2023/03/26 01:04:00;;;;;;;0.60;0.50;;;7.70;99.90;;;;;;6126199;23;20146;-69
2023/03/26 01:06:31;;;;;;;1.10;1.10;;;7.70;99.90;;;;;;6126693;23;20160;-69
2023/03/26 01:09:03;;;;;;;0.40;0.40;;;7.80;99.90;;;;;;6126348;23;20181;-69
2023/03/26 01:11:32;;;;;;;0.40;0.40;;;7.80;99.90;;;;;;6126511;23;20143;-69
2023/03/26 01:14:08;;;;;;;0.73;0.73;;;7.70;99.90;;;;;;6100127;23;20546;-68
2023/03/26 01:16:48;;;;;;;0.30;0.30;;;7.70;99.90;;;;;;6126604;23;20633;-69
2023/03/26 01:19:21;;;;;;;0.50;0.50;;;7.70;99.90;;;;;;6126995;23;20167;-69
2023/03/26 01:21:48;;;;;;;0.80;0.80;;;7.70;99.90;;;;;;6128048;23;20160;-69
2023/03/26 01:24:13;;;;;;;2.05;1.20;;;7.70;99.90;;;;;;6128204;23;20210;-69
2023/03/26 01:27:06;;;;;;;0.30;0.30;;;7.60;99.90;;;;;;6128180;23;20155;-69
2023/03/26 01:29:38;;;;;;;0.40;0.40;;;7.60;99.90;;;;;;6128082;23;20174;-69
2023/03/26 01:32:32;;;;;;;0.30;0.30;;;7.60;99.90;;;;;;6128009;23;20144;-68
2023/03/26 01:35:17;;;;;;;0.35;0.35;;;7.60;99.90;;;;;;6128030;23;20179;-69
2023/03/26 01:38:17;;;;;;;0.30;0.30;;;7.60;99.90;;;;;;6128390;23;20164;-69
2023/03/26 01:40:59;;;;;;;5.95;0.60;;;7.60;99.90;;;;;;6128199;23;20135;-69
2023/03/26 01:43:50;;;;;;;0.40;0.40;;;7.50;99.90;;;;;;6127861;23;20254;-70
2023/03/26 01:46:18;;;;;;;0.45;0.45;;;7.50;99.90;;;;;;6128031;23;20150;-69
2023/03/26 01:48:45;;;;;;;0.93;0.93;;;7.50;99.90;;;;;;6127902;23;20555;-69
2023/03/26 01:51:12;;;;;;;0.32;0.32;;;7.40;99.90;;;;;;6128298;23;20150;-69
2023/03/26 01:53:46;;;;;;;0.50;0.50;;;7.40;99.90;;;;;;6127658;23;20182;-67
2023/03/26 01:56:20;;;;;;;0.82;0.82;;;7.50;99.90;;;;;;6128208;23;20140;-68
2023/03/26 01:58:51;;;;;;;0.40;0.40;;;7.50;99.90;;;;;;6127928;23;20202;-68
2023/03/26 02:01:26;;;;;;;0.30;0.30;;;7.40;99.90;;;;;;6128162;23;20167;-69
2023/03/26 02:04:29;;;;;;;0.30;0.30;;;7.30;99.90;;;;;;6127676;23;20477;-68
2023/03/26 02:07:08;;;;;;;0.77;0.77;;;7.40;99.90;;;;;;6127958;23;20155;-68
2023/03/26 02:09:48;;;;;;;0.40;0.40;;;7.50;99.90;;;;;;6127761;23;20175;-69
2023/03/26 02:12:16;;;;;;;0.30;0.30;;;7.40;99.90;;;;;;6127684;23;20146;-68
2023/03/26 02:14:43;;;;;;;0.30;0.30;;;7.40;99.90;;;;;;6127645;23;20566;-69
2023/03/26 02:17:09;;;;;;;0.40;0.40;;;7.40;99.90;;;;;;6127757;23;20243;-70
2023/03/26 02:19:40;;;;;;;1.58;1.48;;;7.50;99.90;;;;;;6127655;23;20171;-69
2023/03/26 02:22:09;;;;;;;0.30;0.30;;;7.50;99.90;;;;;;6127565;23;20163;-69
2023/03/26 02:24:38;;;;;;;0.60;0.60;;;7.40;99.90;;;;;;6127785;23;20234;-69
2023/03/26 02:27:06;;;;;;;0.30;0.30;;;7.40;99.90;;;;;;6127726;23;20161;-68
2023/03/26 02:29:38;;;;;;;0.30;0.30;;;7.40;99.90;;;;;;6127529;23;20170;-69
2023/03/26 02:32:05;;;;;;;0.30;0.30;;;7.40;99.90;;;;;;6127199;23;20143;-69
2023/03/26 02:34:31;;;;;;;0.40;0.40;;;7.50;99.90;;;;;;6127497;23;20202;-68
2023/03/26 02:36:57;;;;;;;0.30;0.30;;;7.50;99.90;;;;;;6127493;23;20144;-68
2023/03/26 02:39:23;;;;;;;0.45;0.45;;;7.50;99.90;;;;;;6127428;23;20174;-69
2023/03/26 02:41:49;;;;;;;1.55;1.55;;;7.50;99.90;;;;;;6127352;23;20136;-69
2023/03/26 02:44:14;;;;;;;0.60;0.60;;;7.50;99.90;;;;;;6127502;23;20229;-69
2023/03/26 02:46:40;;;;;;;0.33;0.33;;;7.50;99.90;;;;;;6127500;23;20159;-69
2023/03/26 02:49:06;;;;;;;0.40;0.40;;;7.40;99.90;;;;;;6127345;23;20619;-69
2023/03/26 02:51:33;;;;;;;0.43;0.43;;;7.30;99.90;;;;;;6127495;23;20186;-69
2023/03/26 02:54:00;;;;;;;0.30;0.30;;;7.30;99.90;;;;;;6127097;23;20175;-69
2023/03/26 02:56:26;;;;;;;0.40;0.40;;;7.20;99.90;;;;;;6127222;23;20595;-69
2023/03/26 02:58:52;;;;;;;0.40;0.40;;;7.20;99.90;;;;;;6127271;23;20172;-69
2023/03/26 03:01:18;;;;;;;0.30;0.30;;;7.20;99.90;;;;;;6127470;23;20155;-69
2023/03/26 03:03:46;;;;;;;0.87;0.87;;;7.30;99.90;;;;;;6127134;23;20162;-68
2023/03/26 03:06:11;;;;;;;0.30;0.30;;;7.40;99.90;;;;;;6127318;23;20425;-69
2023/03/26 03:08:37;;;;;;;0.40;0.40;;;7.40;99.90;;;;;;6127164;23;20224;-68
2023/03/26 03:11:09;;;;;;;0.97;0.87;;;7.40;99.90;;;;;;6127209;23;20182;-69
2023/03/26 03:13:35;;;;;;;1.40;0.82;;;7.40;99.90;;;;;;6127070;23;20539;-68
2023/03/26 03:16:00;;;;;;;0.40;0.40;;;7.20;99.90;;;;;;6127546;23;20148;-68
2023/03/26 03:18:26;;;;;;;0.37;0.37;;;7.10;99.90;;;;;;6127055;23;20477;-69
2023/03/26 03:20:52;;;;;;;1.10;1.10;;;7.10;99.90;;;;;;6127188;23;20149;-69
2023/03/26 03:23:18;;;;;;;0.50;0.50;;;7.20;99.90;;;;;;6126811;23;20490;-69
2023/03/26 03:25:44;;;;;;;19.37;2.63;;;7.20;99.90;;;;;;6127372;23;20158;-68
2023/03/26 03:28:10;;;;;;;0.63;0.63;;;7.30;99.90;;;;;;6126939;23;20395;-69
2023/03/26 03:30:36;;;;;;;0.40;0.40;;;7.40;99.90;;;;;;6126979;23;20158;-68
2023/03/26 03:33:02;;;;;;;0.37;0.37;;;7.50;99.90;;;;;;6126808;23;20156;-69
2023/03/26 03:35:28;;;;;;;0.30;0.30;;;7.50;99.90;;;;;;6126880;23;20233;-68
2023/03/26 03:37:58;;;;;;;0.57;0.57;;;7.50;99.90;;;;;;6126863;23;20222;-68
2023/03/26 03:40:24;;;;;;;0.40;0.40;;;7.40;99.90;;;;;;6126916;23;20158;-69
2023/03/26 03:42:50;;;;;;;0.30;0.30;;;7.40;99.90;;;;;;6126655;23;20471;-69
2023/03/26 03:45:15;;;;;;;0.37;0.37;;;7.40;99.90;;;;;;6100834;23;20384;-69
2023/03/26 03:47:41;;;;;;;0.40;0.40;;;7.40;99.90;;;;;;6126784;23;20403;-68
2023/03/26 03:50:07;;;;;;;0.30;0.30;;;7.30;99.90;;;;;;6126873;23;20159;-69
2023/03/26 03:52:33;;;;;;;0.40;0.40;;;7.40;99.90;;;;;;6126665;23;20493;-69
2023/03/26 03:55:01;;;;;;;0.30;0.30;;;7.40;99.90;;;;;;6126698;23;20175;-68
2023/03/26 03:57:28;;;;;;;0.30;0.30;;;7.60;99.90;;;;;;6126877;23;20654;-69
2023/03/26 03:59:57;;;;;;;0.47;0.47;;;7.70;99.90;;;;;;6126745;23;20159;-69
2023/03/26 04:02:33;;;;;;;0.52;0.52;;;7.70;99.90;;;;;;6126662;23;20174;-68
2023/03/26 04:05:03;;;;;;;0.77;0.77;;;7.60;99.90;;;;;;6126727;23;20140;-68
2023/03/26 04:07:30;;;;;;;0.40;0.40;;;7.60;99.90;;;;;;6126996;23;20206;-68
2023/03/26 04:09:56;;;;;;;9.73;1.95;;;7.60;99.90;;;;;;6126935;23;20162;-68
2023/03/26 04:12:21;;;;;;;0.32;0.32;;;7.50;99.90;;;;;;6126529;23;20148;-69
2023/03/26 04:14:47;;;;;;;0.40;0.40;;;7.60;99.90;;;;;;6126932;23;20179;-69
2023/03/26 04:17:14;;;;;;;2.47;1.37;;;7.50;99.90;;;;;;6100678;23;20235;-69
2023/03/26 04:19:40;;;;;;;0.50;0.50;;;7.50;99.90;;;;;;6100482;23;20403;-69
2023/03/26 04:22:06;;;;;;;0.43;0.43;;;7.60;99.90;;;;;;6126352;23;20167;-69
2023/03/26 04:24:41;;;;;;;0.38;0.38;;;7.60;99.90;;;;;;6126945;23;20461;-69
2023/03/26 04:27:24;;;;;;;0.40;0.40;;;7.70;99.90;;;;;;6126770;23;20143;-67
2023/03/26 04:29:51;;;;;;;0.30;0.30;;;7.70;99.90;;;;;;6126614;23;20166;-69
2023/03/26 04:32:28;;;;;;;1.20;0.73;;;7.70;99.90;;;;;;6126382;23;20156;-69
2023/03/26 04:34:55;;;;;;;1.20;0.93;;;7.70;99.90;;;;;;6126454;23;20170;-68
2023/03/26 04:37:38;;;;;;;0.50;0.50;;;7.60;99.90;;;;;;6126407;23;20231;-69
2023/03/26 04:40:09;;;;;;;0.30;0.30;;;7.60;99.90;;;;;;6126654;23;20627;-68
2023/03/26 04:42:36;;;;;;;0.50;0.50;;;7.60;99.90;;;;;;6126499;23;20164;-69
2023/03/26 04:45:04;;;;;;;0.30;0.30;;;7.60;99.90;;;;;;6126674;23;20190;-68
2023/03/26 04:47:30;;;;;;;0.50;0.50;;;7.70;99.90;;;;;;6101172;23;20182;-69
2023/03/26 04:49:56;;;;;;;0.40;0.40;;;7.70;99.90;;;;;;6126697;23;20583;-69
2023/03/26 04:52:21;;;;;;;0.70;0.70;;;7.70;99.90;;;;;;6126284;23;20155;-69
2023/03/26 04:54:47;;;;;;;0.90;0.90;;;7.60;99.90;;;;;;6127512;23;20265;-68
2023/03/26 04:57:35;;;;;;;0.30;0.30;;;7.60;99.90;;;;;;6128769;23;20186;-68
2023/03/26 05:00:08;;;;;;;0.90;0.90;;;7.70;99.90;;;;;;6128923;23;20535;-68
2023/03/26 05:02:36;;;;;;;0.40;0.40;;;7.70;99.90;;;;;;6128720;23;20131;-69
2023/03/26 05:05:02;;;;;;;0.77;0.77;;;7.80;99.90;;;;;;6128323;23;20159;-69
2023/03/26 05:07:27;;;;;;;0.70;0.70;;;7.70;99.90;;;;;;6128305;23;20156;-69
2023/03/26 05:09:53;;;;;;;0.70;0.70;;;7.80;99.90;;;;;;6128334;23;20258;-68
2023/03/26 05:12:18;;;;;;;2.67;1.23;;;7.80;99.90;;;;;;6128563;23;20547;-68
2023/03/26 05:14:44;;;;;;;0.90;0.90;;;7.80;99.90;;;;;;6128210;23;20185;-69
2023/03/26 05:17:13;;;;;;;1.97;1.90;;;7.80;99.90;;;;;;6102319;23;20542;-69
2023/03/26 05:19:40;;;;;;;1.75;0.93;;;7.80;99.90;;;;;;6128094;23;20179;-69
2023/03/26 05:22:06;;;;;;;1.00;1.00;;;7.70;99.90;;;;;;6127836;23;20171;-68
2023/03/26 05:24:31;;;;;;;0.60;0.60;;;7.70;99.90;;;;;;6128097;23;20175;-69
2023/03/26 05:26:57;;;;;;;5.20;1.10;;;7.70;99.90;;;;;;6128524;23;20658;-69
2023/03/26 05:29:23;;;;;;;0.40;0.40;;;7.80;99.90;;;;;;6128259;23;20182;-68
2023/03/26 05:31:49;;;;;;;0.50;0.50;;;7.70;99.90;;;;;;6127868;23;20151;-68
2023/03/26 05:34:14;;;;;;;0.60;0.60;;;7.70;99.90;;;;;;6128665;23;20182;-68
2023/03/26 05:36:41;;;;;;;0.40;0.40;;;7.70;99.90;;;;;;6128048;23;20381;-68
2023/03/26 05:39:07;;;;;;;2.00;1.35;;;7.70;99.90;;;;;;6127938;23;20171;-69
2023/03/26 05:41:33;;;;;;;0.40;0.40;;;7.70;99.90;;;;;;6127956;23;20147;-68
2023/03/26 05:43:59;;;;;;;0.85;0.70;;;7.70;99.90;;;;;;6127798;23;20246;-69
2023/03/26 05:46:25;;;;;;;0.87;0.87;;;7.70;99.90;;;;;;6127984;23;20591;-68
2023/03/26 05:48:52;;;;;;;1.15;1.15;;;7.70;99.90;;;;;;6128079;23;20171;-69
2023/03/26 05:51:18;;;;;;;1.17;1.17;;;7.80;99.90;;;;;;6101896;23;20198;-68
2023/03/26 05:53:44;;;;;;;0.68;0.68;;;7.80;99.90;;;;;;6127680;23;20206;-69
2023/03/26 05:56:10;;;;;;;0.50;0.50;;;7.90;99.90;;;;;;6127916;23;20175;-69
2023/03/26 05:58:37;;;;;;;2.83;0.70;;;7.80;99.90;;;;;;6127889;23;20167;-69
2023/03/26 06:01:08;;;;;;;1.38;1.23;;;7.80;99.90;;;;;;6128185;23;20395;-69
2023/03/26 06:03:39;;;;;;;1.52;1.40;;;7.80;99.90;;;;;;6127707;23;20227;-69
2023/03/26 06:06:16;;;;;;;1.70;1.60;;;7.70;99.90;;;;;;6127761;23;20136;-69
2023/03/26 06:08:45;;;;;;;0.80;0.80;;;7.80;99.90;;;;;;6128266;23;20180;-69
2023/03/26 06:11:11;;;;;;;0.93;0.93;;;7.80;99.90;;;;;;6127791;23;20148;-69
2023/03/26 06:13:38;;;;;;;3.45;1.80;;;7.80;99.90;;;;;;6127485;23;20553;-68
2023/03/26 06:16:04;;;;;;;1.02;0.90;;;7.80;99.90;;;;;;6127718;23;20226;-69
2023/03/26 06:18:30;;;;;;;0.70;0.60;;;7.80;99.90;;;;;;6101633;23;20668;-69
2023/03/26 06:20:56;;;;;;;0.40;0.40;;;7.80;99.90;;;;;;6127676;23;20176;-69
2023/03/26 06:23:22;;;;;;;0.93;0.93;;;7.80;99.90;;;;;;6127350;23;20168;-69
2023/03/26 06:25:48;;;;;;;0.60;0.60;;;7.80;99.90;;;;;;6127594;23;20160;-69
2023/03/26 06:28:14;;;;;;;0.98;0.98;;;7.80;99.90;;;;;;6127646;23;20399;-68
2023/03/26 06:30:41;;;;;;;1.02;1.02;;;7.80;99.90;;;;;;6127668;23;20500;-68
2023/03/26 06:33:07;;;;;;;1.05;0.77;;;7.80;99.90;;;;;;6127380;23;20461;-68
2023/03/26 06:35:32;;;;;;;1.65;1.55;;;7.90;99.90;;;;;;6127714;23;20176;-69
2023/03/26 06:37:58;;;;;;;1.57;1.47;;;7.90;99.90;;;;;;6127493;23;20251;-69
2023/03/26 06:40:24;;;;;;;1.07;1.07;;;8.00;99.90;;;;;;6127558;23;20234;-69
2023/03/26 06:42:50;;;;;;;1.57;0.93;;;8.00;99.90;;;;;;6127301;23;20410;-69
2023/03/26 06:45:16;;;;;;;0.68;0.52;;;7.90;99.90;;;;;;6127414;23;20382;-69
2023/03/26 06:47:42;;;;;;;0.67;0.67;;;7.90;99.90;;;;;;6127386;23;20173;-68
2023/03/26 06:50:10;;;;;;;1.40;1.03;;;7.90;99.90;;;;;;6127395;23;20399;-69
2023/03/26 06:52:36;;;;;;;1.45;1.45;;;7.90;99.90;;;;;;6127658;23;20160;-68
2023/03/26 06:55:02;;;;;;;2.17;1.42;;;7.90;99.90;;;;;;6127355;23;20179;-69
2023/03/26 06:57:28;;;;;;;1.30;1.20;;;8.00;99.90;;;;;;6127360;23;20163;-69
2023/03/26 06:59:53;;;;;;;0.60;0.60;;;8.10;99.90;;;;;;6127659;23;20404;-69
2023/03/26 07:02:19;;;;;;;0.77;0.77;;;8.20;99.90;;;;;;6127077;23;20147;-69
2023/03/26 07:04:45;;;;;;;0.60;0.60;;;8.10;99.90;;;;;;6127126;23;20584;-69
2023/03/26 07:07:12;;;;;;;1.30;1.30;;;8.00;99.90;;;;;;6127150;23;20757;-68
2023/03/26 07:09:37;;;;;;;0.80;0.80;;;8.10;99.90;;;;;;6100906;23;20222;-69
2023/03/26 07:12:04;;;;;;;1.07;1.00;;;8.10;99.90;;;;;;6126920;23;20155;-69
2023/03/26 07:14:31;;;;;;;1.48;1.38;;;8.00;99.90;;;;;;6127090;23;20187;-68
2023/03/26 07:16:58;;;;;;;1.15;0.60;;;8.00;99.90;;;;;;6100866;23;20528;-69
2023/03/26 07:19:25;;;;;;;0.70;0.70;;;8.10;99.90;;;;;;6101094;23;20555;-69
2023/03/26 07:21:50;;;;;;;0.65;0.65;;;8.00;99.90;;;;;;6126833;23;20625;-69
2023/03/26 07:24:17;;;;;;;0.60;0.60;;;8.00;99.90;;;;;;6127011;23;20230;-69
2023/03/26 07:26:48;;;;;;;0.68;0.68;;;8.00;99.90;;;;;;6127046;23;20901;-68
2023/03/26 07:29:34;;;;;;;0.85;0.85;;;8.00;99.90;;;;;;6126918;23;20172;-68
2023/03/26 07:32:21;;;;;;;0.82;0.82;;;8.00;99.90;;;;;;6127047;23;20166;-69
2023/03/26 07:35:10;;;;;;;3.03;2.83;;;7.80;99.90;;;;;;6127026;23;20164;-68
2023/03/26 07:38:17;;;;;;;0.40;0.40;;;7.90;99.90;;;;;;6100889;23;20155;-68
2023/03/26 07:41:06;;;;;;;1.05;0.93;;;7.90;99.90;;;;;;6056120;23;20234;-69
2023/03/26 07:44:00;;;;;;;1.33;0.63;;;8.00;99.90;;;;;;6126629;23;20148;-69
2023/03/26 07:46:32;;;;;;;0.70;0.70;;;8.00;99.90;;;;;;6053672;23;20156;-68
2023/03/26 07:49:00;;;;;;;1.25;1.25;;;8.00;99.90;;;;;;6126805;23;20167;-69
2023/03/26 07:51:27;;;;;;;0.77;0.77;;;8.10;99.90;;;;;;6127111;23;20208;-69
2023/03/26 07:53:53;;;;;;;0.40;0.40;;;8.10;99.90;;;;;;6126562;23;20183;-68
2023/03/26 07:56:37;;;;;;;0.40;0.40;;;8.20;99.90;;;;;;6126722;23;20199;-69
2023/03/26 07:59:11;;;;;;;0.45;0.45;;;8.30;99.90;;;;;;6126706;23;20180;-68
2023/03/26 08:01:57;;;;;;;0.47;0.47;;;8.40;99.90;;;;;;6126559;23;20161;-69
2023/03/26 08:04:35;;;;;;;0.30;0.30;;;8.40;99.90;;;;;;6126820;23;20159;-68
2023/03/26 08:07:14;;;;;;;0.50;0.47;;;8.40;99.90;;;;;;6126937;23;20514;-69
2023/03/26 08:10:04;;;;;;;0.40;0.40;;;8.50;99.90;;;;;;6126669;23;20190;-69
2023/03/26 08:12:53;;;;;;;0.50;0.50;;;8.50;99.90;;;;;;6126564;23;20132;-67
2023/03/26 08:15:52;;;;;;;1.15;1.15;;;8.50;99.90;;;;;;6126559;23;20175;-68
2023/03/26 08:18:24;;;;;;;0.38;0.38;;;8.40;99.90;;;;;;6047581;23;20220;-69
2023/03/26 08:21:06;;;;;;;0.40;0.40;;;8.40;99.90;;;;;;6126671;23;20151;-69
2023/03/26 08:23:45;;;;;;;0.47;0.47;;;8.60;99.90;;;;;;6126476;23;20214;-69
2023/03/26 08:26:26;;;;;;;0.30;0.30;;;8.40;99.90;;;;;;6126926;23;20184;-68
2023/03/26 08:29:15;;;;;;;0.50;0.50;;;7.90;99.90;;;;;;6126230;23;20209;-69
2023/03/26 08:31:44;;;;;;;0.50;0.50;;;7.40;99.90;;;;;;6126397;23;20137;-69
2023/03/26 08:34:12;;;;;;;0.65;0.65;;;7.40;99.90;;;;;;6126399;23;20178;-69
2023/03/26 08:36:38;;;;;;;0.82;0.82;;;7.50;99.90;;;;;;6126666;23;20233;-68
2023/03/26 08:39:05;;;;;;;0.55;0.55;;;7.40;99.90;;;;;;6126538;23;20193;-69
2023/03/26 08:41:33;;;;;;;0.30;0.30;;;7.40;99.90;;;;;;6126262;23;20234;-69
2023/03/26 08:44:05;;;;;;;0.30;0.30;;;7.50;99.90;;;;;;6126269;23;20466;-69
2023/03/26 08:46:55;;;;;;;0.88;0.80;;;7.60;99.90;;;;;;6126419;23;20156;-69
2023/03/26 08:49:29;;;;;;;0.40;0.40;;;7.80;99.90;;;;;;6126410;23;20255;-69
2023/03/26 08:52:26;;;;;;;9.30;2.30;;;7.90;99.90;;;;;;6126198;23;20151;-69
2023/03/26 08:55:06;;;;;;;0.30;0.30;;;7.90;99.90;;;;;;6126673;23;20200;-69
2023/03/26 08:57:56;;;;;;;0.30;0.30;;;8.10;99.90;;;;;;6126327;23;20159;-69
2023/03/26 09:00:49;;;;;;;0.57;0.57;;;8.10;99.90;;;;;;6126522;23;20227;-70
2023/03/26 09:03:19;;;;;;;0.82;0.60;;;8.20;99.90;;;;;;6126362;23;20567;-69
2023/03/26 09:06:03;;;;;;;0.50;0.50;;;8.50;99.90;;;;;;6126312;23;20561;-69
2023/03/26 09:09:14;;;;;;;0.40;0.40;;;8.70;99.90;;;;;;6126265;23;20549;-70
2023/03/26 09:12:18;;;;;;;0.40;0.40;;;8.90;99.90;;;;;;6111555;23;20169;-69
2023/03/26 09:14:52;;;;;;;0.30;0.30;;;8.90;99.90;;;;;;5997957;23;20197;-69
2023/03/26 09:17:55;;;;;;;0.40;0.40;;;9.10;99.90;;;;;;6100406;23;20572;-70
2023/03/26 09:20:27;;;;;;;0.30;0.30;;;9.70;99.90;;;;;;6126286;23;20148;-68
2023/03/26 09:23:03;;;;;;;2.05;1.95;;;10.40;99.90;;;;;;6126625;23;20526;-69
2023/03/26 09:25:29;;;;;;;1.10;1.03;;;11.00;99.90;;;;;;6126311;23;20136;-70
2023/03/26 09:28:10;;;;;;;0.50;0.50;;;11.40;99.90;;;;;;6126138;23;20420;-70
2023/03/26 09:30:59;;;;;;;0.40;0.40;;;12.00;99.80;;;;;;6126277;23;20135;-70
2023/03/26 09:33:58;;;;;;;2.27;2.10;;;12.50;98.80;;;;;;6126234;23;20395;-70
2023/03/26 09:36:48;;;;;;;0.50;0.50;;;12.80;97.80;;;;;;6126211;23;20380;-69
2023/03/26 09:39:41;;;;;;;0.40;0.40;;;13.20;95.70;;;;;;6126276;23;20384;-70
2023/03/26 09:42:31;;;;;;;0.50;0.40;;;13.60;95.40;;;;;;6127935;23;20344;-70
2023/03/26 09:45:18;;;;;;;1.40;1.07;;;13.60;94.70;;;;;;6128318;23;20361;-70
2023/03/26 09:47:55;;;;;;;0.30;0.30;;;13.70;94.50;;;;;;6128156;23;20385;-70
2023/03/26 09:50:48;;;;;;;1.30;0.60;;;13.50;94.00;;;;;;6128154;23;20380;-70
2023/03/26 09:53:23;;;;;;;0.40;0.40;;;12.60;94.50;;;;;;6127802;23;20355;-70
2023/03/26 09:55:57;;;;;;;0.53;0.53;;;11.80;94.80;;;;;;6127812;23;20422;-70
2023/03/26 09:58:32;;;;;;;0.30;0.30;;;11.40;94.90;;;;;;6128024;23;20394;-69
2023/03/26 10:01:23;;;;;;;0.47;0.47;;;11.40;96.60;;;;;;6101968;23;20368;-70
2023/03/26 10:04:05;;;;;;;0.40;0.40;;;12.10;95.40;;;;;;6127744;23;20355;-69
2023/03/26 10:06:50;;;;;;;0.77;0.63;;;12.10;94.40;;;;;;6127876;23;20360;-69
2023/03/26 10:09:38;;;;;;;0.33;0.33;;;11.80;95.80;;;;;;6127751;23;20515;-69
2023/03/26 10:12:07;;;;;;;0.47;0.47;;;11.50;95.50;;;;;;6127635;23;20368;-70
2023/03/26 10:14:54;;;;;;;0.50;0.50;;;11.30;95.70;;;;;;6127647;23;20180;-70
2023/03/26 10:17:50;;;;;;;0.90;0.90;;;11.30;95.40;;;;;;6127685;23;20348;-70
2023/03/26 10:20:24;;;;;;;0.53;0.50;;;11.50;95.80;;;;;;6128006;23;20377;-69
2023/03/26 10:23:17;;;;;;;0.60;0.60;;;12.00;96.40;;;;;;6127387;23;20394;-70
2023/03/26 10:26:14;;;;;;;0.30;0.30;;;12.80;95.20;;;;;;6127779;23;20356;-69
2023/03/26 10:28:52;;;;;;;0.40;0.40;;;13.20;92.60;;;;;;6127536;23;20726;-70
2023/03/26 10:31:39;;;;;;;0.40;0.40;;;13.20;93.00;;;;;;6127623;23;20350;-69
2023/03/26 10:34:20;;;;;;;0.30;0.30;;;13.50;91.20;;;;;;6127739;23;20407;-70
2023/03/26 10:36:56;;;;;;;0.70;0.70;;;13.20;90.50;;;;;;6127535;23;20366;-69
2023/03/26 10:39:42;;;;;;;0.40;0.40;;;12.50;91.90;;;;;;6127507;23;20399;-69
2023/03/26 10:42:20;;;;;;;0.53;0.53;;;12.30;92.60;;;;;;6127344;23;20352;-70
2023/03/26 10:45:08;;;;;;;1.33;1.10;;;12.20;91.60;;;;;;6127646;23;20360;-69
2023/03/26 10:47:52;;;;;;;0.40;0.40;;;12.00;92.00;;;;;;6127389;23;20389;-70
2023/03/26 10:50:40;;;;;;;0.40;0.40;;;11.70;91.60;;;;;;6101460;23;20696;-69
2023/03/26 10:53:27;;;;;;;0.50;0.50;;;11.50;91.40;;;;;;6126880;23;20384;-69
2023/03/26 10:55:59;;;;;;;0.30;0.30;;;11.40;92.00;;;;;;6127308;23;20410;-70
2023/03/26 10:58:28;;;;;;;0.40;0.40;;;12.10;91.90;;;;;;6127528;23;20731;-69
2023/03/26 11:01:20;;;;;;;0.40;0.40;;;12.50;90.00;;;;;;6127300;23;20376;-70
2023/03/26 11:03:50;;;;;;;0.40;0.40;;;12.40;87.60;;;;;;6119875;23;20478;-69
2023/03/26 11:06:34;;;;;;;0.40;0.40;;;12.20;89.00;;;;;;6127326;23;20485;-69
2023/03/26 11:09:17;;;;;;;0.60;0.60;;;12.00;89.80;;;;;;6127168;23;20394;-69
2023/03/26 11:11:55;;;;;;;0.57;0.57;;;11.60;89.90;;;;;;6127188;23;20689;-70
2023/03/26 11:14:32;;;;;;;0.30;0.30;;;11.10;91.30;;;;;;6126975;23;20415;-69
2023/03/26 11:17:16;;;;;;;0.30;0.30;;;10.70;93.20;;;;;;6127357;23;20680;-70
2023/03/26 11:20:39;;;;;;;1.90;0.50;;;10.50;95.10;;;;;;6101021;23;20400;-70
2023/03/26 11:23:41;;;;;;;0.45;0.40;;;10.20;93.50;;;;;;5978523;24;20864;-69
2023/03/26 11:26:10;;;;;;;0.40;0.40;;;9.60;94.40;;;;;;5979645;24;20204;-69
2023/03/26 11:29:20;;;;;;;0.50;0.50;;;9.20;94.80;;;;;;6087779;23;20219;-69
2023/03/26 11:32:16;;;;;;;1.30;1.25;;;8.90;95.30;;;;;;6089446;23;20522;-69
2023/03/26 11:34:51;;;;;;;0.80;0.80;;;8.50;95.80;;;;;;6126970;23;20619;-70
2023/03/26 11:37:29;;;;;;;0.73;0.73;;;8.50;98.10;;;;;;6101044;23;20599;-69
2023/03/26 11:39:58;;;;;;;0.30;0.30;;;8.40;97.20;;;;;;6127248;23;20136;-69
2023/03/26 11:42:24;;;;;;;0.40;0.40;;;8.40;98.10;;;;;;6126850;23;20515;-70
2023/03/26 11:45:03;;;;;;;0.30;0.30;;;8.70;98.30;;;;;;6126999;23;20156;-69
2023/03/26 11:47:51;;;;;;;0.30;0.30;;;9.40;98.50;;;;;;6126850;23;20133;-69
2023/03/26 11:50:25;;;;;;;0.30;0.30;;;10.00;97.00;;;;;;6126880;23;20148;-70
2023/03/26 11:53:02;;;;;;;0.40;0.40;;;10.00;94.30;;;;;;6126702;23;20140;-70
2023/03/26 11:55:29;;;;;;;0.40;0.40;;;10.00;94.60;;;;;;6126752;23;20612;-69
2023/03/26 11:57:58;;;;;;;0.30;0.30;;;10.20;95.50;;;;;;6126337;23;20219;-70
2023/03/26 12:00:26;;;;;;;0.30;0.30;;;10.50;95.00;;;;;;6124768;23;20223;-69
2023/03/26 12:02:56;;;;;;;0.50;0.50;;;10.90;95.10;;;;;;6124476;23;20384;-69
2023/03/26 12:05:25;;;;;;;0.60;0.60;;;10.80;94.60;;;;;;6126652;23;20380;-69
2023/03/26 12:07:58;;;;;;;0.30;0.30;;;10.30;95.80;;;;;;6126448;23;20494;-70
2023/03/26 12:10:36;;;;;;;0.30;0.30;;;10.60;95.50;;;;;;6126798;23;20141;-69
2023/03/26 12:13:21;;;;;;;0.80;0.60;;;11.00;95.60;;;;;;6126508;23;20360;-70
2023/03/26 12:15:48;;;;;;;0.73;0.73;;;11.40;94.20;;;;;;6123839;23;20415;-69
2023/03/26 12:18:32;;;;;;;0.30;0.30;;;11.50;92.50;;;;;;6124545;23;20388;-70
2023/03/26 12:21:10;;;;;;;0.30;0.30;;;11.60;92.90;;;;;;6125796;23;20403;-70
2023/03/26 12:23:37;;;;;;;0.70;0.70;;;11.80;92.20;;;;;;6126523;23;20386;-69
2023/03/26 12:26:15;;;;;;;0.33;0.33;;;11.90;92.40;;;;;;6126563;23;20439;-69
2023/03/26 12:28:46;;;;;;;0.30;0.30;;;12.10;92.00;;;;;;6126777;23;20475;-70
2023/03/26 12:31:19;;;;;;;0.60;0.60;;;12.10;91.80;;;;;;6125641;23;20614;-70
2023/03/26 12:34:12;;;;;;;0.80;0.80;;;12.10;92.20;;;;;;6126418;23;20686;-70
2023/03/26 12:36:38;;;;;;;0.30;0.30;;;12.20;91.90;;;;;;6124722;23;20427;-70
2023/03/26 12:39:32;;;;;;;0.30;0.30;;;12.30;91.40;;;;;;6124583;23;20424;-70
2023/03/26 12:42:00;;;;;;;0.30;0.30;;;12.60;90.20;;;;;;6125415;23;20143;-70
2023/03/26 12:44:29;;;;;;;0.50;0.50;;;12.70;88.70;;;;;;6126509;23;20376;-69
2023/03/26 12:47:34;;;;;;;0.30;0.30;;;12.60;87.20;;;;;;6100591;23;20462;-69
2023/03/26 12:50:00;;;;;;;0.47;0.47;;;12.60;87.00;;;;;;6125321;23;20386;-69
2023/03/26 12:53:13;;;;;;;0.30;0.30;;;12.40;87.20;;;;;;6126460;23;20706;-70
2023/03/26 12:55:52;;;;;;;0.40;0.40;;;11.90;89.90;;;;;;6126244;23;20180;-69
2023/03/26 12:58:20;;;;;;;0.30;0.30;;;11.60;91.80;;;;;;6126367;23;20478;-70
2023/03/26 13:01:27;;;;;;;0.40;0.40;;;11.30;94.70;;;;;;6126384;23;20376;-70
2023/03/26 13:04:26;;;;;;;0.30;0.30;;;10.80;96.30;;;;;;5980615;24;20389;-70
2023/03/26 13:06:55;;;;;;;0.40;0.40;;;10.40;95.10;;;;;;6100355;23;20387;-69
2023/03/26 13:09:34;;;;;;;0.30;0.30;;;10.00;96.70;;;;;;6126255;23;20175;-68
2023/03/26 13:12:05;;;;;;;0.32;0.32;;;9.90;96.50;;;;;;6126327;23;20143;-69
2023/03/26 13:14:31;;;;;;;0.30;0.30;;;9.80;97.20;;;;;;6126717;23;20231;-69
2023/03/26 13:17:18;;;;;;;0.33;0.33;;;10.00;96.00;;;;;;6128310;23;20149;-69
2023/03/26 13:20:11;;;;;;;0.50;0.50;;;10.30;95.10;;;;;;6128261;23;20164;-70
2023/03/26 13:22:48;;;;;;;0.40;0.40;;;10.70;95.40;;;;;;6128178;23;20398;-69
2023/03/26 13:25:36;;;;;;;0.40;0.40;;;11.30;95.60;;;;;;6128420;23;20352;-69
2023/03/26 13:28:30;;;;;;;0.50;0.50;;;11.70;94.70;;;;;;6128666;23;20394;-70
2023/03/26 13:31:07;;;;;;;0.30;0.30;;;11.90;93.00;;;;;;6128536;23;20474;-70